This is the latest recevied weather packets stored in our database for station/object HA5KDQ-10. If no packets are shown the sender has not sent any weather packets the latest 10 day(s).
| Time | Temp. | Humidity | Pressure | Rain* | Wind** | Luminosity | Snow |
|---|---|---|---|---|---|---|---|
| 1777504127 | 6.67° C | 40% | 968.8 hPa | - | - | - | - |
| 1777500526 | 7.78° C | 38% | 968.4 hPa | - | - | - | - |
| 1777496925 | 7.22° C | 37% | 967.5 hPa | - | - | - | - |
| 1777493325 | 9.44° C | 31% | 966.9 hPa | - | - | - | - |
| 1777489723 | 10.56° C | 29% | 966.2 hPa | - | - | - | - |
| 1777486143 | 12.78° C | 24% | 964.6 hPa | - | - | - | - |
| 1777482542 | 15° C | 21% | 964.1 hPa | - | - | - | - |
| 1777478942 | 17.22° C | 19% | 963.9 hPa | - | - | - | - |
| 1777475340 | 18.33° C | 17% | 964.1 hPa | - | - | - | - |
| 1777471739 | 22.78° C | 16% | 964.2 hPa | - | - | - | - |
| 1777468138 | 22.78° C | 16% | 964.4 hPa | - | - | - | - |
| 1777464537 | 22.78° C | 16% | 964.6 hPa | - | - | - | - |
| 1777460936 | 22.22° C | 17% | 965.1 hPa | - | - | - | - |
| 1777457335 | 21.67° C | 16% | 965.6 hPa | - | - | - | - |
| 1777453734 | 21.67° C | 17% | 965.8 hPa | - | - | - | - |
| 1777450133 | 20.56° C | 18% | 966 hPa | - | - | - | - |
| 1777446532 | 18.89° C | 18% | 965.7 hPa | - | - | - | - |
| 1777442932 | 17.78° C | 20% | 965.6 hPa | - | - | - | - |
| 1777439331 | 15.56° C | 21% | 965.2 hPa | - | - | - | - |
| 1777435730 | 11.11° C | 26% | 964.6 hPa | - | - | - | - |
| 1777432129 | 7.78° C | 28% | 964.1 hPa | - | - | - | - |
| 1777428528 | 8.33° C | 27% | 964.2 hPa | - | - | - | - |
| 1777424927 | 8.89° C | 28% | 964.1 hPa | - | - | - | - |
| 1777421326 | 9.44° C | 29% | 964.2 hPa | - | - | - | - |
| 1777417726 | 10° C | 30% | 964.2 hPa | - | - | - | - |
* Rain since midnight (hover to see other rain measurements)
** Current wind speed in m/s (hover to see current wind gust speed)